Time;durP1;ratioP1;P1;durP2;ratioP2;P2;SDS_P1;SDS_P2;PMS_P1;PMS_P2;Temp;Humidity;BMP_temperature;BMP_pressure;BME280_temperature;BME280_humidity;BME280_pressure;Samples;Min_cycle;Max_cycle;Signal;HPM_P1;HPM_P2
2021/05/09 00:01:55;;;;;;;4.13;3.73;;;;;;;10.55;69.91;100750.38;6124208;28;20558;-51
2021/05/09 00:05:16;;;;;;;3.53;3.23;;;;;;;10.79;68.87;100765.72;6132512;28;20717;-50
2021/05/09 00:08:38;;;;;;;3.60;3.30;;;;;;;10.61;69.37;100761.56;6136642;28;20243;-50
2021/05/09 00:11:58;;;;;;;3.67;3.37;;;;;;;10.43;70.75;100749.59;6132979;28;20545;-53
2021/05/09 00:15:22;;;;;;;4.30;3.70;;;;;;;10.38;71.17;100740.97;6125156;28;20239;-50
2021/05/09 00:18:42;;;;;;;4.33;3.80;;;;;;;10.44;70.71;100740.91;6136660;28;20557;-50
2021/05/09 00:22:03;;;;;;;4.33;3.93;;;;;;;10.82;68.78;100733.59;6135231;28;20630;-49
2021/05/09 00:25:24;;;;;;;3.63;3.33;;;;;;;11.06;68.49;100732.41;6133063;28;20247;-52
2021/05/09 00:28:45;;;;;;;3.33;3.03;;;;;;;10.74;69.08;100730.19;6118464;28;20964;-50
2021/05/09 00:32:06;;;;;;;4.00;3.70;;;;;;;10.70;69.59;100724.16;6127071;28;20235;-50
2021/05/09 00:35:26;;;;;;;4.40;4.07;;;;;;;11.08;68.20;100725.44;6129694;28;20356;-50
2021/05/09 00:38:47;;;;;;;3.27;2.80;;;;;;;10.57;70.06;100723.41;6130742;28;20668;-51
2021/05/09 00:42:08;;;;;;;3.27;3.07;;;;;;;11.04;68.11;100718.53;6127179;28;20338;-51
2021/05/09 00:45:28;;;;;;;3.70;3.40;;;;;;;10.83;68.58;100712.69;6124209;28;20236;-52
2021/05/09 00:48:49;;;;;;;4.83;3.60;;;;;;;10.90;68.79;100712.66;6118471;28;20599;-51
2021/05/09 00:52:11;;;;;;;3.40;3.10;;;;;;;10.90;68.84;100704.84;6132444;28;20227;-51
2021/05/09 00:55:32;;;;;;;11.13;4.60;;;;;;;10.87;69.38;100705.72;6133055;28;20326;-50
2021/05/09 00:58:56;;;;;;;4.50;3.53;;;;;;;10.93;68.70;100696.97;6128024;28;20234;-49
2021/05/09 01:02:18;;;;;;;3.63;3.33;;;;;;;10.90;68.71;100697.03;6135337;28;20228;-48
2021/05/09 01:05:39;;;;;;;5.20;3.83;;;;;;;10.90;68.86;100694.41;6149786;28;20231;-52
2021/05/09 01:09:01;;;;;;;4.33;3.93;;;;;;;10.88;69.10;100701.38;6138009;28;20243;-54
2021/05/09 01:12:21;;;;;;;3.90;3.43;;;;;;;10.72;69.42;100698.97;6137225;28;20992;-49
2021/05/09 01:15:43;;;;;;;3.67;3.37;;;;;;;11.43;66.72;100696.28;6141077;28;20655;-54
2021/05/09 01:19:04;;;;;;;4.97;3.70;;;;;;;11.17;67.47;100694.06;6153933;28;20231;-49
2021/05/09 01:22:26;;;;;;;3.73;3.43;;;;;;;11.28;67.35;100699.09;6115684;28;20247;-53
2021/05/09 01:25:47;;;;;;;3.53;3.23;;;;;;;10.88;68.55;100701.38;6140569;28;20235;-49
2021/05/09 01:29:08;;;;;;;4.70;4.30;;;;;;;10.79;69.30;100698.00;6139095;28;20223;-47
2021/05/09 01:32:29;;;;;;;5.60;3.40;;;;;;;11.10;68.52;100697.59;6155143;28;20235;-49
2021/05/09 01:35:50;;;;;;;3.77;3.47;;;;;;;10.91;68.72;100698.72;6151271;28;20227;-55
2021/05/09 01:39:11;;;;;;;4.00;3.67;;;;;;;11.30;67.45;100696.47;6145743;28;20231;-48
2021/05/09 01:42:32;;;;;;;3.50;3.20;;;;;;;11.46;66.35;100697.13;6135262;28;20541;-53
2021/05/09 01:45:53;;;;;;;3.73;3.07;;;;;;;11.29;67.69;100697.38;6148872;28;20246;-52
2021/05/09 01:49:14;;;;;;;4.70;3.60;;;;;;;11.16;67.91;100692.31;6141985;28;20601;-51
2021/05/09 01:52:34;;;;;;;3.80;3.50;;;;;;;11.44;66.81;100694.56;6151165;28;20624;-50
2021/05/09 01:55:56;;;;;;;4.63;2.83;;;;;;;11.40;66.60;100685.91;6140132;28;20231;-54
2021/05/09 01:59:21;;;;;;;8.50;4.10;;;;;;;11.45;66.38;100684.97;6131753;28;20314;-48
2021/05/09 02:06:23;;;;;;;3.70;3.27;;;;;;;11.35;66.18;100676.44;6119435;28;20317;-50
2021/05/09 02:09:43;;;;;;;2.83;2.63;;;;;;;11.39;66.91;100678.09;6135747;28;20230;-48
2021/05/09 02:13:06;;;;;;;3.50;3.20;;;;;;;11.58;66.39;100689.13;6135834;28;20269;-52
2021/05/09 02:16:35;;;;;;;3.27;2.97;;;;;;;11.36;67.02;100678.13;6135455;28;20690;-53
2021/05/09 02:19:58;;;;;;;3.17;2.97;;;;;;;11.31;67.28;100678.22;6144669;28;20231;-52
2021/05/09 02:23:24;;;;;;;3.90;3.03;;;;;;;11.41;66.71;100665.91;6151411;28;20238;-53
2021/05/09 02:26:44;;;;;;;3.67;3.20;;;;;;;11.63;65.83;100671.63;6141051;28;20239;-50
2021/05/09 02:30:08;;;;;;;3.53;3.23;;;;;;;11.60;65.75;100667.34;6144382;28;21125;-56
2021/05/09 02:33:29;;;;;;;3.33;3.07;;;;;;;11.73;65.41;100665.41;6134973;28;20238;-48
2021/05/09 02:36:51;;;;;;;4.80;3.97;;;;;;;11.68;66.21;100666.38;6147073;28;20548;-55
2021/05/09 02:40:13;;;;;;;3.27;2.97;;;;;;;11.62;66.00;100662.09;6134053;28;20306;-47
2021/05/09 02:43:33;;;;;;;2.97;2.77;;;;;;;11.58;65.86;100663.03;6136849;28;20314;-54
2021/05/09 02:46:54;;;;;;;3.13;2.90;;;;;;;11.54;66.43;100654.41;6146830;28;20235;-49
2021/05/09 02:50:16;;;;;;;3.67;3.27;;;;;;;11.42;66.91;100657.22;6133754;28;20243;-52
2021/05/09 02:53:37;;;;;;;3.67;3.33;;;;;;;11.67;65.86;100654.19;6131589;28;20247;-52
2021/05/09 02:56:57;;;;;;;3.47;3.17;;;;;;;11.70;65.97;100654.16;6140886;28;20883;-50
2021/05/09 03:00:19;;;;;;;3.17;2.97;;;;;;;11.62;65.82;100655.13;6133426;28;20223;-46
2021/05/09 03:03:41;;;;;;;4.40;3.17;;;;;;;11.65;65.65;100651.63;6131915;28;21173;-50
2021/05/09 03:07:01;;;;;;;2.83;2.60;;;;;;;11.54;66.04;100654.41;6133941;28;20617;-52
2021/05/09 03:10:23;;;;;;;3.40;3.10;;;;;;;11.79;64.97;100654.00;6155579;28;20231;-51
2021/05/09 03:13:43;;;;;;;3.13;2.60;;;;;;;12.02;64.04;100654.50;6139846;28;20594;-52
2021/05/09 03:17:03;;;;;;;4.40;3.07;;;;;;;11.95;64.28;100663.31;6135164;28;20231;-51
2021/05/09 03:20:25;;;;;;;14.40;3.77;;;;;;;11.93;63.97;100665.09;6148461;28;20619;-51
2021/05/09 03:23:45;;;;;;;3.30;3.10;;;;;;;11.87;64.44;100657.34;6139036;28;20341;-49
2021/05/09 03:27:06;;;;;;;3.43;2.63;;;;;;;11.84;64.51;100665.22;6137406;28;20590;-53
2021/05/09 03:30:26;;;;;;;3.10;2.80;;;;;;;11.98;63.56;100671.13;6133093;28;20259;-51
2021/05/09 03:33:47;;;;;;;2.57;2.33;;;;;;;11.88;63.95;100661.66;6133352;28;20267;-49
2021/05/09 03:37:08;;;;;;;4.00;3.43;;;;;;;11.93;64.36;100669.47;6136396;28;20500;-51
2021/05/09 03:40:29;;;;;;;3.33;2.83;;;;;;;12.17;63.33;100668.16;6130512;28;20247;-50
2021/05/09 03:43:50;;;;;;;5.43;2.63;;;;;;;11.92;64.20;100662.50;6123881;28;20520;-49
2021/05/09 03:47:10;;;;;;;10.77;3.53;;;;;;;12.19;63.27;100661.16;6133660;28;20428;-50
2021/05/09 03:50:31;;;;;;;5.37;2.53;;;;;;;12.35;62.46;100659.16;6130568;28;20227;-55
2021/05/09 03:53:53;;;;;;;4.87;2.07;;;;;;;12.18;62.68;100665.53;6139752;28;20297;-51
2021/05/09 03:57:13;;;;;;;3.43;2.87;;;;;;;12.43;62.23;100661.59;6128796;28;20240;-52
2021/05/09 04:00:34;;;;;;;2.50;2.33;;;;;;;12.15;62.88;100660.34;6133973;28;20621;-51
2021/05/09 04:03:54;;;;;;;2.90;2.70;;;;;;;12.45;62.13;100647.63;6134832;28;20231;-48
2021/05/09 04:07:15;;;;;;;2.53;2.33;;;;;;;12.56;61.70;100657.84;6137659;28;20657;-51
2021/05/09 04:10:36;;;;;;;2.87;2.43;;;;;;;12.80;60.87;100665.22;6128891;28;20232;-52
2021/05/09 04:13:57;;;;;;;2.93;2.37;;;;;;;12.55;61.80;100664.00;6130615;28;20849;-52
2021/05/09 04:17:17;;;;;;;2.60;2.40;;;;;;;12.66;60.98;100662.03;6137115;28;20395;-50
2021/05/09 04:20:38;;;;;;;3.40;3.10;;;;;;;12.68;60.74;100660.25;6131666;28;20230;-52
2021/05/09 04:23:58;;;;;;;3.03;2.17;;;;;;;12.68;60.88;100660.25;6133645;28;20238;-52
2021/05/09 04:27:19;;;;;;;2.40;2.20;;;;;;;12.75;59.98;100661.81;6135791;28;20231;-54
2021/05/09 04:30:40;;;;;;;2.73;2.20;;;;;;;12.70;60.30;100655.84;6136888;28;20350;-50
2021/05/09 04:34:00;;;;;;;2.90;2.70;;;;;;;13.12;59.28;100661.03;6134373;28;20250;-52
2021/05/09 04:37:21;;;;;;;7.20;3.43;;;;;;;13.04;59.00;100649.03;6143068;28;20230;-54
2021/05/09 04:40:41;;;;;;;6.30;3.67;;;;;;;13.14;59.09;100661.88;6129061;28;20227;-50
2021/05/09 04:44:03;;;;;;;2.73;2.53;;;;;;;12.78;60.11;100650.47;6134189;28;20242;-53
2021/05/09 04:47:23;;;;;;;3.63;3.20;;;;;;;13.26;58.90;100654.63;6138318;28;20227;-49
2021/05/09 04:50:44;;;;;;;3.47;2.17;;;;;;;13.05;59.10;100659.47;6130449;28;20506;-47
2021/05/09 04:54:05;;;;;;;3.37;2.53;;;;;;;12.98;59.07;100650.03;6136863;28;20231;-51
2021/05/09 04:57:25;;;;;;;3.53;2.53;;;;;;;13.00;59.33;100650.84;6134236;28;20243;-53
2021/05/09 05:00:50;;;;;;;3.13;2.43;;;;;;;13.17;59.10;100648.72;6136379;28;20610;-52
2021/05/09 05:04:10;;;;;;;3.77;3.07;;;;;;;13.13;58.61;100646.22;6129373;28;20508;-51
2021/05/09 05:07:31;;;;;;;2.33;2.20;;;;;;;13.21;58.43;100644.28;6143265;28;20326;-51
2021/05/09 05:10:51;;;;;;;3.50;2.67;;;;;;;13.32;58.32;100641.47;6141726;28;20235;-52
2021/05/09 05:14:11;;;;;;;2.07;1.97;;;;;;;13.41;57.84;100641.25;6134931;28;20629;-47
2021/05/09 05:17:33;;;;;;;2.60;1.93;;;;;;;13.34;57.94;100639.69;6145446;28;20231;-52
2021/05/09 05:20:55;;;;;;;2.43;2.20;;;;;;;13.47;57.83;100645.47;6139895;28;20223;-51
2021/05/09 05:24:17;;;;;;;5.23;3.10;;;;;;;13.65;57.28;100642.44;6146603;28;20239;-48
2021/05/09 05:27:37;;;;;;;3.73;2.47;;;;;;;13.75;56.66;100635.22;6141665;28;20453;-51
2021/05/09 05:30:58;;;;;;;2.30;2.10;;;;;;;14.27;55.33;100640.81;6144907;28;20231;-49
2021/05/09 05:34:19;;;;;;;2.33;2.13;;;;;;;14.04;55.52;100646.69;6143791;28;20243;-52
2021/05/09 05:37:40;;;;;;;3.13;2.33;;;;;;;14.23;55.18;100641.81;6145728;28;20242;-53
2021/05/09 05:41:01;;;;;;;4.37;2.77;;;;;;;14.21;54.96;100639.25;6141224;28;20243;-50
2021/05/09 05:44:22;;;;;;;2.60;2.10;;;;;;;13.95;56.19;100635.53;6144958;28;20267;-51
2021/05/09 05:47:42;;;;;;;3.17;2.03;;;;;;;14.44;55.16;100635.97;6143434;28;21139;-54
2021/05/09 05:51:04;;;;;;;3.17;2.03;;;;;;;14.10;55.50;100644.75;6142178;28;20321;-53
2021/05/09 05:54:25;;;;;;;3.33;2.53;;;;;;;14.44;54.89;100646.44;6143761;28;20509;-47
2021/05/09 05:57:45;;;;;;;3.17;2.70;;;;;;;14.49;54.39;100643.72;6143542;28;20238;-53
2021/05/09 06:01:06;;;;;;;4.07;2.37;;;;;;;14.57;54.64;100647.00;6141801;28;20268;-51
2021/05/09 06:04:26;;;;;;;3.57;2.33;;;;;;;14.60;54.27;100639.06;6140603;28;20318;-51
2021/05/09 06:07:47;;;;;;;3.37;2.17;;;;;;;14.71;53.89;100638.75;6143886;28;20222;-51
2021/05/09 06:11:08;;;;;;;2.03;1.83;;;;;;;14.76;53.87;100637.72;6144473;28;20607;-49
2021/05/09 06:14:29;;;;;;;2.20;2.10;;;;;;;14.95;53.34;100630.19;6144141;28;20247;-49
2021/05/09 06:17:50;;;;;;;4.80;2.53;;;;;;;15.12;52.59;100634.91;6137661;28;20239;-50
2021/05/09 06:21:10;;;;;;;2.70;2.03;;;;;;;15.06;52.70;100624.63;6140113;28;20636;-51
2021/05/09 06:24:32;;;;;;;2.40;2.20;;;;;;;15.39;51.91;100632.31;6140852;28;20240;-52
2021/05/09 06:27:52;;;;;;;3.07;1.97;;;;;;;15.16;52.89;100627.81;6144267;28;20368;-48
2021/05/09 06:31:12;;;;;;;2.70;2.20;;;;;;;15.34;52.86;100634.25;6133504;28;20610;-53
2021/05/09 06:34:33;;;;;;;4.00;2.00;;;;;;;15.37;52.84;100634.13;6138727;28;20227;-54
2021/05/09 06:37:54;;;;;;;2.60;1.77;;;;;;;15.51;52.48;100641.56;6141866;28;20219;-52
2021/05/09 06:41:18;;;;;;;2.07;1.73;;;;;;;15.65;52.59;100638.50;6143671;28;20235;-51
2021/05/09 06:44:42;;;;;;;2.90;2.27;;;;;;;16.00;52.02;100637.34;6142470;28;20728;-49
2021/05/09 06:48:05;;;;;;;3.47;1.77;;;;;;;15.72;52.49;100633.00;6137727;28;20725;-51
2021/05/09 06:51:25;;;;;;;2.97;2.10;;;;;;;15.90;52.25;100634.16;6139860;28;20239;-53
2021/05/09 06:54:46;;;;;;;2.17;2.00;;;;;;;15.99;52.47;100637.38;6133776;28;20231;-52
2021/05/09 06:58:09;;;;;;;1.63;1.53;;;;;;;16.16;51.94;100632.41;6141013;28;20273;-54
2021/05/09 07:01:30;;;;;;;3.73;2.10;;;;;;;16.26;51.62;100636.41;6140097;28;20258;-51
2021/05/09 07:04:50;;;;;;;3.20;2.10;;;;;;;16.77;50.64;100626.69;6139905;28;20865;-53
2021/05/09 07:08:11;;;;;;;2.80;2.13;;;;;;;17.21;50.29;100634.66;6140760;28;20529;-50
2021/05/09 07:11:32;;;;;;;2.67;1.63;;;;;;;16.98;50.70;100625.03;6143313;28;22346;-53
2021/05/09 07:14:53;;;;;;;4.60;2.20;;;;;;;17.03;50.49;100628.34;6141544;28;20592;-53
2021/05/09 07:18:16;;;;;;;2.07;1.73;;;;;;;17.63;49.56;100619.84;6142385;28;20231;-49
2021/05/09 07:21:40;;;;;;;2.60;1.97;;;;;;;17.63;49.56;100623.31;6141893;28;20235;-52
2021/05/09 07:25:01;;;;;;;3.17;2.53;;;;;;;17.39;50.16;100630.44;6137670;28;20333;-53
2021/05/09 07:28:22;;;;;;;2.40;2.20;;;;;;;17.47;50.12;100636.25;6138513;28;20236;-47
2021/05/09 07:31:43;;;;;;;3.53;1.70;;;;;;;17.68;50.20;100625.75;6135778;28;21668;-50
2021/05/09 07:35:04;;;;;;;4.00;2.13;;;;;;;17.76;49.47;100630.69;6131542;28;20239;-50
2021/05/09 07:38:24;;;;;;;3.50;3.23;;;;;;;17.83;49.50;100611.94;6122687;28;20227;-53
2021/05/09 07:41:45;;;;;;;3.93;2.00;;;;;;;17.89;49.18;100624.91;6136963;28;20753;-52
2021/05/09 07:45:09;;;;;;;3.33;2.17;;;;;;;17.93;49.42;100615.06;6142315;28;20238;-49
2021/05/09 07:48:30;;;;;;;2.17;1.90;;;;;;;18.29;48.35;100623.16;6133489;28;20242;-53
2021/05/09 07:51:50;;;;;;;2.30;2.10;;;;;;;18.08;49.09;100634.63;6137853;28;20227;-53
2021/05/09 07:55:12;;;;;;;2.10;1.70;;;;;;;18.51;48.08;100614.28;6137415;28;20239;-53
2021/05/09 07:58:32;;;;;;;2.27;1.93;;;;;;;18.92;47.66;100611.56;6134222;28;20255;-50
2021/05/09 08:01:52;;;;;;;3.77;2.70;;;;;;;18.64;47.84;100633.91;6137426;28;20228;-54
2021/05/09 08:05:14;;;;;;;3.10;1.93;;;;;;;18.67;48.09;100623.22;6140739;28;20231;-54
2021/05/09 08:08:36;;;;;;;3.63;2.20;;;;;;;19.25;46.80;100626.69;6138575;28;20501;-50
2021/05/09 08:11:56;;;;;;;3.77;2.00;;;;;;;18.97;47.61;100624.53;6140958;28;20235;-52
2021/05/09 08:15:18;;;;;;;2.10;1.87;;;;;;;19.33;46.39;100626.31;6149099;28;20585;-51
2021/05/09 08:18:39;;;;;;;3.15;2.40;;;;;;;19.33;46.45;100621.91;6137676;28;20250;-51
2021/05/09 08:22:02;;;;;;;5.35;1.90;;;;;;;19.34;46.16;100620.13;6134232;28;20637;-54
2021/05/09 08:25:23;;;;;;;2.53;2.33;;;;;;;19.37;46.29;100622.63;6129951;28;20782;-49
2021/05/09 08:28:43;;;;;;;5.25;2.45;;;;;;;19.87;46.02;100611.34;6133471;28;21114;-47
2021/05/09 08:32:04;;;;;;;100.73;78.73;;;;;;;20.69;45.81;100612.38;6130395;28;20725;-50
2021/05/09 08:35:25;;;;;;;33.03;29.50;;;;;;;20.41;44.12;100600.59;6142354;28;20239;-50
2021/05/09 08:38:46;;;;;;;251.63;226.73;;;;;;;20.65;44.66;100612.53;6138573;28;20231;-51
2021/05/09 08:42:07;;;;;;;86.28;78.28;;;;;;;21.01;43.22;100606.16;6139542;28;20670;-50
2021/05/09 08:45:27;;;;;;;545.42;491.85;;;;;;;21.68;43.08;100600.59;6129618;28;20231;-53
2021/05/09 08:48:50;;;;;;;359.63;320.25;;;;;;;21.13;42.13;100595.81;6137319;28;20243;-51
2021/05/09 08:52:11;;;;;;;9.40;8.60;;;;;;;20.62;42.87;100596.81;6136789;28;20220;-47
2021/05/09 08:55:32;;;;;;;2.10;1.80;;;;;;;21.08;42.26;100595.22;6132944;28;20617;-50
2021/05/09 08:58:53;;;;;;;3.67;2.25;;;;;;;21.18;41.82;100591.97;6135260;28;20305;-52
2021/05/09 09:02:14;;;;;;;3.20;2.80;;;;;;;21.22;41.47;100587.34;6128446;28;20322;-49
2021/05/09 09:05:37;;;;;;;4.28;2.00;;;;;;;20.93;42.18;100584.53;6135807;28;20227;-49
2021/05/09 09:08:58;;;;;;;4.22;2.13;;;;;;;20.76;42.25;100574.03;6139816;28;20321;-52
2021/05/09 09:12:20;;;;;;;1.77;1.67;;;;;;;20.91;41.65;100580.28;6132201;28;20250;-50
2021/05/09 09:15:47;;;;;;;2.55;1.77;;;;;;;21.25;42.01;100563.34;6125444;28;20278;-50
2021/05/09 09:19:09;;;;;;;2.65;1.73;;;;;;;20.95;41.89;100569.44;6137699;28;20314;-51
2021/05/09 09:22:53;;;;;;;3.83;1.80;;;;;;;21.54;40.98;100558.16;6146632;28;20326;-51
2021/05/09 09:26:35;;;;;;;2.22;1.70;;;;;;;21.66;40.80;100554.78;6135855;28;20286;-52
2021/05/09 09:30:00;;;;;;;4.25;1.95;;;;;;;21.35;40.73;100561.03;6139344;28;20251;-53
2021/05/09 09:33:21;;;;;;;2.80;2.00;;;;;;;21.78;40.22;100550.56;6129647;28;20326;-50
2021/05/09 09:36:41;;;;;;;3.13;1.73;;;;;;;21.57;40.19;100544.75;6144092;28;20231;-50
2021/05/09 09:40:03;;;;;;;2.72;2.38;;;;;;;21.60;40.17;100545.41;6135437;28;21130;-48
2021/05/09 09:43:23;;;;;;;2.15;1.80;;;;;;;22.01;39.48;100534.09;6133657;28;20333;-47
2021/05/09 09:46:51;;;;;;;1.70;1.60;;;;;;;21.50;40.11;100524.84;6133011;28;20239;-50
2021/05/09 09:50:33;;;;;;;3.47;1.70;;;;;;;21.37;40.74;100528.19;6134113;28;20727;-47
2021/05/09 09:53:55;;;;;;;3.83;1.90;;;;;;;22.02;39.61;100529.66;6134847;28;20325;-52
2021/05/09 09:57:29;;;;;;;2.17;2.08;;;;;;;21.94;39.67;100506.25;6139405;28;20231;-53
2021/05/09 10:00:50;;;;;;;2.47;1.48;;;;;;;22.46;38.46;100512.78;6136172;28;20231;-51
2021/05/09 10:04:13;;;;;;;2.47;2.08;;;;;;;22.38;38.78;100510.63;6135930;28;20227;-51
2021/05/09 10:07:33;;;;;;;7.72;2.15;;;;;;;22.20;38.75;100501.16;6134304;28;20239;-49
2021/05/09 10:10:54;;;;;;;3.28;1.80;;;;;;;21.97;38.65;100499.94;6140177;28;20234;-51
2021/05/09 10:14:16;;;;;;;1.55;1.33;;;;;;;21.93;38.63;100503.72;6134741;28;20235;-52
2021/05/09 10:17:37;;;;;;;2.65;1.40;;;;;;;22.56;37.95;100492.66;6138742;28;20307;-54
2021/05/09 10:21:00;;;;;;;1.65;1.55;;;;;;;22.21;38.04;100494.88;6140715;28;20408;-52
2021/05/09 10:24:22;;;;;;;1.98;1.55;;;;;;;22.79;37.50;100487.69;6137264;28;20231;-50
2021/05/09 10:27:43;;;;;;;3.95;2.25;;;;;;;22.89;38.07;100478.16;6136455;28;20227;-49
2021/05/09 10:31:04;;;;;;;3.25;1.90;;;;;;;23.11;37.07;100482.06;6137132;28;20227;-49
2021/05/09 10:34:58;;;;;;;1.50;1.40;;;;;;;23.15;36.37;100475.63;6134005;28;20224;-48
2021/05/09 10:38:19;;;;;;;2.92;1.35;;;;;;;23.41;36.40;100457.06;6136887;28;20255;-55
2021/05/09 10:42:13;;;;;;;2.80;2.10;;;;;;;23.15;36.99;100454.38;6136408;28;20231;-52
2021/05/09 10:45:53;;;;;;;3.38;2.17;;;;;;;23.40;35.82;100458.88;6137055;28;20239;-48
2021/05/09 10:49:15;;;;;;;1.77;1.67;;;;;;;23.51;35.75;100458.13;6138506;28;20235;-58
2021/05/09 10:52:39;;;;;;;3.88;2.35;;;;;;;23.85;35.04;100467.28;6145290;28;20263;-51
2021/05/09 10:56:02;;;;;;;2.15;1.48;;;;;;;23.45;35.96;100466.50;6136741;28;20322;-54
2021/05/09 10:59:56;;;;;;;2.20;1.48;;;;;;;23.72;33.76;100461.94;6142856;28;20612;-49
2021/05/09 11:03:47;;;;;;;1.52;1.40;;;;;;;23.33;34.58;100463.72;6130920;28;20231;-52
2021/05/09 11:07:07;;;;;;;3.20;2.00;;;;;;;24.06;34.28;100451.63;6133306;28;20323;-49
2021/05/09 11:10:46;;;;;;;2.15;1.60;;;;;;;24.31;33.69;100448.06;6133651;28;20234;-50
2021/05/09 11:14:20;;;;;;;1.90;1.52;;;;;;;24.00;34.10;100451.19;6132852;28;20223;-53
2021/05/09 11:17:40;;;;;;;2.03;1.48;;;;;;;25.06;33.73;100448.78;6111191;28;20239;-53
2021/05/09 11:21:01;;;;;;;1.35;1.25;;;;;;;24.91;32.29;100446.31;6134950;28;20365;-49
2021/05/09 11:24:24;;;;;;;1.48;1.35;;;;;;;25.04;32.10;100450.72;6113187;28;20576;-50
2021/05/09 11:27:46;;;;;;;2.20;2.00;;;;;;;24.73;33.02;100453.84;6130870;28;20537;-52
2021/05/09 11:31:29;;;;;;;4.50;2.10;;;;;;;24.22;32.59;100455.84;6138100;28;20258;-64
2021/05/09 11:34:51;;;;;;;1.92;1.20;;;;;;;25.05;31.98;100449.75;6136655;28;20614;-62
2021/05/09 11:38:14;;;;;;;1.95;1.40;;;;;;;24.96;32.01;100454.78;6149199;28;20247;-63
2021/05/09 11:41:51;;;;;;;2.15;1.77;;;;;;;25.06;31.72;100464.78;6137520;28;20649;-64
2021/05/09 11:45:12;;;;;;;2.88;1.35;;;;;;;24.90;31.67;100455.25;6133695;28;20231;-65
2021/05/09 11:48:33;;;;;;;5.32;2.72;;;;;;;25.55;30.59;100445.03;6117176;28;20611;-64
2021/05/09 11:51:55;;;;;;;1.67;1.20;;;;;;;25.18;31.33;100453.16;6137069;28;20314;-63
2021/05/09 11:55:16;;;;;;;2.03;1.55;;;;;;;25.45;31.13;100444.91;6134103;28;20674;-60
2021/05/09 11:58:36;;;;;;;4.00;2.08;;;;;;;26.10;30.14;100431.88;6131564;28;20231;-62
2021/05/09 12:01:58;;;;;;;1.77;1.48;;;;;;;26.06;30.14;100428.59;6141451;28;20238;-61
2021/05/09 12:05:21;;;;;;;1.88;1.50;;;;;;;26.66;29.75;100431.75;6149355;28;20238;-63
2021/05/09 12:08:41;;;;;;;2.25;1.77;;;;;;;26.37;29.58;100441.28;6146176;28;20237;-62
2021/05/09 12:12:03;;;;;;;1.50;1.40;;;;;;;27.05;28.95;100420.53;6137631;28;20351;-63
2021/05/09 12:15:24;;;;;;;1.75;1.65;;;;;;;26.86;28.62;100427.41;6138875;28;20230;-60
2021/05/09 12:18:44;;;;;;;2.63;2.42;;;;;;;27.39;27.71;100413.16;6134827;28;20243;-63
2021/05/09 12:22:06;;;;;;;2.63;2.42;;;;;;;27.86;27.74;100420.69;6135016;28;20231;-62
2021/05/09 12:25:32;;;;;;;2.28;2.08;;;;;;;27.47;28.07;100420.50;6130694;28;20239;-62
2021/05/09 12:28:52;;;;;;;2.65;2.45;;;;;;;27.87;26.72;100412.50;6398641;23;20254;-62
2021/05/09 12:32:25;;;;;;;4.75;2.45;;;;;;;29.45;24.24;100412.50;6134798;28;20936;-62
2021/05/09 12:35:47;;;;;;;3.00;1.63;;;;;;;32.41;21.28;100409.56;6133892;28;20239;-63
2021/05/09 12:39:22;;;;;;;1.98;1.70;;;;;;;33.57;20.31;100406.66;6137372;28;20230;-63
2021/05/09 12:42:59;;;;;;;4.35;3.95;;;;;;;33.70;19.40;100414.22;6137063;28;20222;-63
2021/05/09 12:46:40;;;;;;;4.80;3.63;;;;;;;36.02;17.85;100399.44;6136433;28;20235;-63
2021/05/09 12:50:00;;;;;;;3.55;3.25;;;;;;;31.24;21.37;100405.69;6123840;28;20251;-63
2021/05/09 12:53:48;;;;;;;3.20;2.90;;;;;;;28.36;25.26;100406.47;6138257;28;20609;-63
2021/05/09 12:57:23;;;;;;;2.97;2.60;;;;;;;31.33;22.97;100385.88;6142869;28;20499;-63
2021/05/09 13:00:44;;;;;;;3.40;3.10;;;;;;;34.32;18.78;100389.94;6149299;28;20243;-63
2021/05/09 13:04:25;;;;;;;9.85;8.85;;;;;;;28.92;24.84;100386.19;6142325;28;20636;-63
2021/05/09 13:07:48;;;;;;;5.15;4.65;;;;;;;30.99;21.92;100384.00;6133637;28;20231;-62
2021/05/09 13:11:08;;;;;;;5.50;5.05;;;;;;;31.56;21.35;100375.44;6151837;28;20525;-62
2021/05/09 13:14:41;;;;;;;3.58;2.92;;;;;;;32.66;20.38;100372.72;6144051;28;20239;-62
2021/05/09 13:18:03;;;;;;;2.53;1.75;;;;;;;31.48;21.31;100370.03;6147769;28;20323;-63
2021/05/09 13:21:23;;;;;;;3.20;3.00;;;;;;;31.26;22.76;100360.63;6138803;28;20223;-63
2021/05/09 13:24:46;;;;;;;7.38;6.68;;;;;;;32.16;21.63;100355.63;6143803;28;21044;-61
2021/05/09 13:28:07;;;;;;;6.30;5.72;;;;;;;31.59;21.61;100349.06;6140247;28;20235;-57
2021/05/09 13:31:28;;;;;;;2.03;1.90;;;;;;;32.96;19.82;100344.22;6136927;28;20235;-57
2021/05/09 13:34:49;;;;;;;2.78;1.45;;;;;;;33.58;19.34;100326.50;6139640;28;20250;-57
2021/05/09 13:38:09;;;;;;;2.15;1.95;;;;;;;31.42;21.48;100312.28;6144265;28;20520;-58
2021/05/09 13:41:30;;;;;;;1.25;1.15;;;;;;;28.84;24.36;100301.16;6136444;28;20326;-58
2021/05/09 13:44:51;;;;;;;1.52;1.25;;;;;;;28.17;24.52;100305.56;6141510;28;20314;-58
2021/05/09 13:48:13;;;;;;;1.95;1.55;;;;;;;28.12;24.66;100276.53;6146111;28;20247;-58
2021/05/09 13:51:33;;;;;;;1.73;1.63;;;;;;;29.68;22.71;100265.38;6146388;28;20343;-58
2021/05/09 13:54:54;;;;;;;4.57;1.20;;;;;;;29.35;21.25;100283.81;6141870;28;20539;-59
2021/05/09 13:58:15;;;;;;;3.55;1.50;;;;;;;30.11;21.12;100271.03;6142992;28;20231;-58
2021/05/09 14:01:36;;;;;;;1.23;1.23;;;;;;;30.60;20.73;100274.16;6140551;28;20234;-58
2021/05/09 14:04:57;;;;;;;2.67;2.10;;;;;;;30.98;20.65;100282.81;6134584;28;20629;-59
2021/05/09 14:08:17;;;;;;;3.03;2.83;;;;;;;31.39;20.51;100281.19;6140222;28;20243;-58
2021/05/09 14:11:38;;;;;;;3.20;1.67;;;;;;;31.24;19.48;100290.03;6136851;28;20624;-58
2021/05/09 14:15:00;;;;;;;2.65;2.40;;;;;;;31.87;20.12;100289.56;6136031;28;20259;-58
2021/05/09 14:18:20;;;;;;;1.35;1.00;;;;;;;30.09;19.72;100283.78;6142788;28;20231;-59
2021/05/09 14:21:42;;;;;;;2.70;1.13;;;;;;;29.72;20.11;100287.41;6135105;28;20246;-58
2021/05/09 14:25:03;;;;;;;4.57;4.18;;;;;;;30.00;20.86;100283.69;6142878;28;20238;-56
2021/05/09 14:28:23;;;;;;;4.40;2.15;;;;;;;29.40;20.80;100269.94;6137976;28;20227;-59
2021/05/09 14:31:43;;;;;;;2.70;1.02;;;;;;;29.23;20.99;100253.63;6134040;28;20231;-58
2021/05/09 14:35:04;;;;;;;2.60;1.33;;;;;;;28.72;22.13;100249.59;6137360;28;20238;-59
2021/05/09 14:38:25;;;;;;;2.42;1.55;;;;;;;28.40;21.14;100245.41;6137856;28;20231;-59
2021/05/09 14:41:46;;;;;;;0.93;0.82;;;;;;;27.95;22.36;100248.66;6109836;28;20321;-56
2021/05/09 14:45:07;;;;;;;2.20;1.90;;;;;;;29.18;21.01;100245.22;6130355;28;20227;-59
2021/05/09 14:48:28;;;;;;;1.55;1.30;;;;;;;28.94;21.79;100228.78;6128927;28;20220;-60
2021/05/09 14:51:48;;;;;;;2.83;1.20;;;;;;;28.16;21.89;100220.91;6134866;28;20238;-56
2021/05/09 14:55:11;;;;;;;2.53;1.38;;;;;;;27.82;22.61;100221.28;6132599;28;20244;-57
2021/05/09 14:58:31;;;;;;;1.65;1.55;;;;;;;28.05;22.08;100222.75;6137424;28;20421;-56
2021/05/09 15:01:52;;;;;;;1.70;1.60;;;;;;;28.06;22.46;100240.47;6129964;28;20230;-60
2021/05/09 15:05:13;;;;;;;2.65;2.22;;;;;;;27.95;23.13;100227.25;6141842;28;21069;-58
2021/05/09 15:08:33;;;;;;;1.80;1.70;;;;;;;28.31;23.53;100210.63;6136730;28;20235;-56
2021/05/09 15:11:55;;;;;;;1.77;1.40;;;;;;;28.73;23.24;100205.75;6140204;28;20247;-57
2021/05/09 15:15:16;;;;;;;1.70;1.30;;;;;;;28.97;23.35;100204.38;6138750;28;20306;-57
2021/05/09 15:18:37;;;;;;;1.58;1.38;;;;;;;28.37;23.58;100193.97;6138412;28;20231;-57
2021/05/09 15:21:59;;;;;;;2.33;1.67;;;;;;;28.98;24.07;100203.38;6144303;28;20238;-55
2021/05/09 15:25:19;;;;;;;5.07;1.95;;;;;;;28.36;24.54;100203.81;6136095;28;20609;-54
2021/05/09 15:28:40;;;;;;;3.00;2.03;;;;;;;28.51;24.99;100198.03;6138851;28;20238;-57
2021/05/09 15:32:01;;;;;;;1.30;1.20;;;;;;;28.69;25.06;100187.41;6141048;28;20239;-53
2021/05/09 15:35:22;;;;;;;1.27;1.17;;;;;;;28.84;25.37;100180.59;6141100;28;20550;-55
2021/05/09 15:38:42;;;;;;;3.08;1.30;;;;;;;27.87;26.71;100184.25;6136981;28;20603;-59
2021/05/09 15:42:03;;;;;;;1.77;1.67;;;;;;;27.94;27.28;100179.25;6141895;28;20238;-57
2021/05/09 15:45:24;;;;;;;1.67;1.48;;;;;;;27.81;27.29;100174.13;6130315;28;20231;-57